Time;durP1;ratioP1;P1;durP2;ratioP2;P2;SDS_P1;SDS_P2;PMS_P1;PMS_P2;Temp;Humidity;BMP_temperature;BMP_pressure;BME280_temperature;BME280_humidity;BME280_pressure;Samples;Min_cycle;Max_cycle;Signal;HPM_P1;HPM_P2
2021/06/16 00:00:41;;;;;;;7.68;4.10;;;487.00;2380.80;;;;;;4895519;29;20049;-71
2021/06/16 00:03:07;;;;;;;9.75;4.60;;;486.90;2380.80;;;;;;4891757;29;20092;-71
2021/06/16 00:05:33;;;;;;;6.50;3.72;;;486.90;2380.80;;;;;;4884698;29;20039;-70
2021/06/16 00:07:59;;;;;;;9.70;4.85;;;486.90;2380.80;;;;;;4897322;29;20464;-71
2021/06/16 00:10:29;;;;;;;6.82;4.53;;;486.90;2380.80;;;;;;4896450;29;20032;-70
2021/06/16 00:12:55;;;;;;;7.22;3.75;;;487.00;2380.80;;;;;;4905967;29;20600;-70
2021/06/16 00:15:26;;;;;;;7.32;3.92;;;487.00;2380.80;;;;;;4896347;29;20111;-69
2021/06/16 00:17:52;;;;;;;8.80;5.47;;;487.00;2380.80;;;;;;4896031;29;20028;-69
2021/06/16 00:20:18;;;;;;;8.32;5.05;;;487.00;2380.80;;;;;;4896901;29;20041;-69
2021/06/16 00:22:44;;;;;;;11.40;4.90;;;487.00;2380.80;;;;;;4896740;29;20029;-69
2021/06/16 00:25:11;;;;;;;16.67;4.38;;;486.90;2380.80;;;;;;4896685;29;20024;-69
2021/06/16 00:27:37;;;;;;;6.63;4.13;;;487.30;2380.80;;;;;;4896371;29;20035;-69
2021/06/16 00:30:05;;;;;;;8.57;5.07;;;486.90;2380.80;;;;;;4896641;29;20036;-69
2021/06/16 00:32:31;;;;;;;9.00;4.60;;;486.90;2380.80;;;;;;4871645;29;20033;-69
2021/06/16 00:34:56;;;;;;;8.90;4.35;;;486.90;2380.80;;;;;;4882910;29;20036;-69
2021/06/16 00:37:22;;;;;;;9.80;4.70;;;486.90;2380.80;;;;;;4893577;29;20028;-70
2021/06/16 00:39:48;;;;;;;16.48;4.68;;;486.90;2380.80;;;;;;4896426;29;20120;-68
2021/06/16 00:42:14;;;;;;;8.10;4.88;;;486.80;2380.80;;;;;;4901032;29;20035;-68
2021/06/16 00:44:39;;;;;;;7.55;4.25;;;486.80;2380.80;;;;;;4903782;29;20041;-68
2021/06/16 00:47:05;;;;;;;8.23;3.65;;;486.80;2380.80;;;;;;4894308;29;20032;-69
2021/06/16 00:49:34;;;;;;;8.65;5.15;;;486.90;2380.80;;;;;;4895640;29;20450;-69
2021/06/16 00:52:00;;;;;;;7.63;4.15;;;486.90;2380.80;;;;;;4888176;29;20029;-69
2021/06/16 00:54:25;;;;;;;10.60;4.40;;;486.90;2380.80;;;;;;4896740;29;20035;-69
2021/06/16 00:56:51;;;;;;;7.25;5.35;;;486.80;2380.80;;;;;;4896359;29;20367;-69
2021/06/16 00:59:17;;;;;;;9.38;4.65;;;486.80;2380.80;;;;;;4896624;29;20048;-69
2021/06/16 01:01:46;;;;;;;7.45;5.00;;;486.80;2380.80;;;;;;4896038;29;20033;-69
2021/06/16 01:04:23;;;;;;;8.20;4.93;;;486.70;2380.80;;;;;;4883116;29;20033;-69
2021/06/16 01:06:49;;;;;;;6.50;4.88;;;486.70;2380.80;;;;;;4896051;29;20016;-68
2021/06/16 01:09:31;;;;;;;8.38;4.65;;;486.60;2380.80;;;;;;4895934;29;20390;-68
2021/06/16 01:12:36;;;;;;;9.13;4.75;;;486.60;2380.80;;;;;;4889611;29;20025;-69
2021/06/16 01:15:14;;;;;;;7.38;5.00;;;486.60;2380.80;;;;;;4881351;29;20445;-69
2021/06/16 01:17:53;;;;;;;10.73;4.40;;;486.50;2380.80;;;;;;4895778;29;20023;-69
2021/06/16 01:20:42;;;;;;;7.55;4.95;;;486.60;2380.80;;;;;;4894527;29;20512;-69
2021/06/16 01:23:08;;;;;;;7.82;4.35;;;486.50;2380.80;;;;;;4887716;29;20060;-69
2021/06/16 01:25:38;;;;;;;8.68;4.80;;;486.50;2380.80;;;;;;4903538;29;20048;-69
2021/06/16 01:28:04;;;;;;;12.57;5.03;;;486.50;2380.80;;;;;;4890039;29;20482;-69
2021/06/16 01:30:32;;;;;;;7.68;4.70;;;486.40;2380.80;;;;;;4895889;29;20120;-68
2021/06/16 01:33:00;;;;;;;6.47;4.35;;;461.70;2380.80;;;;;;4895658;29;20024;-68
2021/06/16 01:35:29;;;;;;;6.28;4.47;;;461.70;2380.80;;;;;;4895763;29;20032;-68
2021/06/16 01:37:57;;;;;;;9.38;4.80;;;486.40;2380.80;;;;;;4894412;29;20485;-68
2021/06/16 01:40:25;;;;;;;10.07;4.95;;;486.40;2380.80;;;;;;4895621;29;20043;-68
2021/06/16 01:42:53;;;;;;;6.13;4.35;;;486.40;2380.80;;;;;;4895482;29;20025;-68
2021/06/16 01:45:20;;;;;;;7.88;4.85;;;461.70;2380.80;;;;;;4895667;29;20032;-68
2021/06/16 01:47:47;;;;;;;8.68;5.38;;;486.40;2380.80;;;;;;4894519;29;20036;-69
2021/06/16 01:50:17;;;;;;;9.40;5.05;;;461.70;2380.80;;;;;;4895351;29;20039;-68
2021/06/16 01:52:46;;;;;;;9.30;5.28;;;461.70;2380.80;;;;;;4895967;29;20084;-68
2021/06/16 01:55:13;;;;;;;6.90;4.50;;;461.70;2380.80;;;;;;4894846;29;20033;-68
2021/06/16 01:57:39;;;;;;;15.75;5.97;;;461.70;2380.80;;;;;;4895635;29;20057;-68
2021/06/16 02:00:06;;;;;;;7.60;4.75;;;461.70;2380.80;;;;;;4894981;29;20177;-69
2021/06/16 02:02:32;;;;;;;8.93;4.65;;;461.70;2380.80;;;;;;4895623;29;20033;-68
2021/06/16 02:04:59;;;;;;;9.82;5.20;;;461.70;2380.80;;;;;;4895050;29;20056;-68
2021/06/16 02:07:29;;;;;;;7.90;5.50;;;461.70;2380.80;;;;;;4894869;29;20176;-69
2021/06/16 02:09:57;;;;;;;7.22;5.03;;;461.60;2380.80;;;;;;4894382;29;20545;-69
2021/06/16 02:12:24;;;;;;;9.60;5.78;;;461.60;2380.80;;;;;;4894522;29;20426;-69
2021/06/16 02:14:58;;;;;;;6.13;5.18;;;461.60;2380.80;;;;;;4891469;29;20375;-69
2021/06/16 02:17:28;;;;;;;11.27;5.40;;;461.60;2380.80;;;;;;4891946;29;20021;-68
2021/06/16 02:19:55;;;;;;;7.75;5.47;;;461.50;2380.80;;;;;;4888645;29;20750;-68
2021/06/16 02:22:23;;;;;;;9.43;6.13;;;461.50;2380.80;;;;;;4895012;29;20032;-68
2021/06/16 02:24:49;;;;;;;10.02;6.13;;;461.50;2380.80;;;;;;4878039;29;20394;-68
2021/06/16 02:27:15;;;;;;;10.07;5.32;;;461.40;2380.80;;;;;;4895289;29;20052;-69
2021/06/16 02:29:41;;;;;;;7.63;5.35;;;461.40;2380.80;;;;;;4894917;29;20025;-69
2021/06/16 02:32:07;;;;;;;9.43;5.97;;;461.30;2380.80;;;;;;4902273;29;20466;-68
2021/06/16 02:34:33;;;;;;;10.75;5.45;;;461.10;2380.80;;;;;;4898039;29;20029;-68
2021/06/16 02:37:06;;;;;;;9.45;5.38;;;461.10;2380.80;;;;;;4895063;29;20365;-68
2021/06/16 02:39:53;;;;;;;9.43;5.75;;;461.00;2380.80;;;;;;4872589;29;20041;-68
2021/06/16 02:42:19;;;;;;;7.38;5.57;;;461.00;2380.80;;;;;;4887308;29;20364;-68
2021/06/16 02:44:50;;;;;;;11.52;5.30;;;461.00;2380.80;;;;;;4894387;29;20029;-68
2021/06/16 02:47:17;;;;;;;9.55;5.38;;;461.00;2380.80;;;;;;4894693;29;20119;-69
2021/06/16 02:50:04;;;;;;;8.80;5.63;;;460.80;2380.80;;;;;;4887836;29;20025;-69
2021/06/16 02:52:31;;;;;;;11.90;7.25;;;460.80;2380.80;;;;;;4894641;29;20025;-69
2021/06/16 02:55:01;;;;;;;9.80;5.35;;;460.80;2380.80;;;;;;4894886;29;20875;-69
2021/06/16 02:57:30;;;;;;;12.10;6.97;;;460.90;2380.80;;;;;;4894740;29;20049;-68
2021/06/16 02:59:57;;;;;;;10.00;6.18;;;461.00;2380.80;;;;;;4894319;29;20135;-69
2021/06/16 03:02:27;;;;;;;8.48;5.15;;;461.00;2380.80;;;;;;4894680;29;20039;-69
2021/06/16 03:04:56;;;;;;;11.98;6.95;;;461.00;2380.80;;;;;;4894424;29;20037;-69
2021/06/16 03:07:22;;;;;;;8.70;5.60;;;461.00;2380.80;;;;;;4896665;29;20024;-69
2021/06/16 03:10:04;;;;;;;9.48;5.97;;;461.00;2380.80;;;;;;4893513;29;20025;-68
2021/06/16 03:12:31;;;;;;;9.40;5.55;;;461.10;2380.80;;;;;;4895917;29;20031;-69
2021/06/16 03:14:59;;;;;;;11.65;5.88;;;461.10;2380.80;;;;;;4897753;29;20133;-69
2021/06/16 03:17:26;;;;;;;12.40;6.05;;;461.10;2380.80;;;;;;4897085;29;20036;-69
2021/06/16 03:19:52;;;;;;;10.40;5.88;;;461.10;2380.80;;;;;;4897917;29;20032;-69
2021/06/16 03:22:19;;;;;;;11.88;7.57;;;461.10;2380.80;;;;;;4898216;29;20037;-69
2021/06/16 03:24:48;;;;;;;16.67;7.18;;;461.00;2380.80;;;;;;4897663;29;20029;-69
2021/06/16 03:27:14;;;;;;;10.15;6.60;;;460.90;2380.80;;;;;;4897740;29;20043;-69
2021/06/16 03:29:41;;;;;;;11.50;7.25;;;461.00;2380.80;;;;;;4897833;29;20036;-69
2021/06/16 03:32:08;;;;;;;14.13;6.88;;;461.00;2380.80;;;;;;4897411;29;20036;-69
2021/06/16 03:34:37;;;;;;;8.75;6.47;;;461.10;2380.80;;;;;;4897866;29;20108;-69
2021/06/16 03:37:07;;;;;;;13.60;6.85;;;461.10;2380.80;;;;;;4898057;29;20060;-69
2021/06/16 03:39:34;;;;;;;15.02;7.53;;;461.20;2380.80;;;;;;4897721;29;20033;-69
2021/06/16 03:42:01;;;;;;;8.52;6.20;;;461.30;2380.80;;;;;;4897136;29;20032;-69
2021/06/16 03:44:46;;;;;;;9.75;6.30;;;461.40;2380.80;;;;;;4897955;29;20414;-69
2021/06/16 03:47:14;;;;;;;10.80;6.75;;;461.40;2380.80;;;;;;4896382;29;20032;-69
2021/06/16 03:49:43;;;;;;;9.82;6.03;;;461.40;2380.80;;;;;;4898254;29;20023;-69
2021/06/16 03:52:11;;;;;;;9.65;6.80;;;461.40;2380.80;;;;;;4897129;29;20031;-69
2021/06/16 03:54:39;;;;;;;8.90;7.07;;;461.40;2380.80;;;;;;4897416;29;20107;-69
2021/06/16 03:57:07;;;;;;;10.07;6.60;;;461.40;2380.80;;;;;;4898547;29;20367;-69
2021/06/16 03:59:35;;;;;;;12.00;5.50;;;461.40;2380.80;;;;;;4902853;29;20080;-70
2021/06/16 04:02:01;;;;;;;11.38;6.95;;;461.50;2380.80;;;;;;4895482;29;20035;-70
2021/06/16 04:04:27;;;;;;;9.25;6.65;;;461.50;2380.80;;;;;;4892015;29;20025;-70
2021/06/16 04:06:53;;;;;;;9.68;6.65;;;486.40;2380.80;;;;;;4895956;29;20092;-70
2021/06/16 04:09:20;;;;;;;12.23;6.90;;;486.50;2380.80;;;;;;4896970;29;20024;-69
2021/06/16 04:11:46;;;;;;;8.30;6.55;;;486.50;2380.80;;;;;;4903570;29;20020;-69
2021/06/16 04:14:12;;;;;;;7.32;6.28;;;486.70;2380.80;;;;;;4900501;29;20107;-69
2021/06/16 04:16:44;;;;;;;10.75;6.55;;;486.70;2380.80;;;;;;4897608;29;20021;-69
2021/06/16 04:19:11;;;;;;;12.23;6.57;;;486.90;2380.80;;;;;;4893082;29;20028;-69
2021/06/16 04:21:37;;;;;;;14.23;7.30;;;487.10;2380.80;;;;;;4890304;29;20487;-69
2021/06/16 04:24:03;;;;;;;10.32;6.60;;;512.00;2380.80;;;;;;4894729;29;20043;-69
2021/06/16 04:26:29;;;;;;;13.48;6.28;;;487.30;2380.80;;;;;;4880013;29;20088;-69
2021/06/16 04:28:55;;;;;;;9.93;6.50;;;512.00;2380.80;;;;;;4896524;29;20091;-70
2021/06/16 04:31:21;;;;;;;10.07;6.20;;;512.00;2380.80;;;;;;4896634;29;20060;-69
2021/06/16 04:33:46;;;;;;;14.52;5.90;;;512.30;2380.80;;;;;;4897055;29;20088;-70
2021/06/16 04:36:12;;;;;;;9.07;6.40;;;512.50;2380.80;;;;;;4896493;29;20024;-70
2021/06/16 04:38:38;;;;;;;10.73;6.65;;;512.70;2380.80;;;;;;4896656;29;20027;-70
2021/06/16 04:41:04;;;;;;;9.90;6.30;;;512.90;2380.80;;;;;;4897025;29;20060;-70
2021/06/16 04:43:30;;;;;;;9.25;6.15;;;512.90;2380.80;;;;;;4897662;29;20064;-70
2021/06/16 04:46:02;;;;;;;8.02;5.65;;;537.70;2406.40;;;;;;4900939;29;20040;-70
2021/06/16 04:48:28;;;;;;;11.73;5.85;;;537.80;2406.40;;;;;;4891200;29;20021;-70
2021/06/16 04:50:54;;;;;;;9.95;6.18;;;537.90;2406.40;;;;;;4892726;29;20530;-70
2021/06/16 04:53:20;;;;;;;9.07;6.20;;;538.10;2406.40;;;;;;4890899;29;20059;-69
2021/06/16 04:55:46;;;;;;;19.40;7.03;;;538.10;2406.40;;;;;;4879460;29;20107;-69
2021/06/16 04:58:11;;;;;;;10.82;5.55;;;538.30;2406.40;;;;;;4895140;29;20092;-70
2021/06/16 05:00:37;;;;;;;10.35;5.50;;;538.50;2406.40;;;;;;4895152;29;20059;-70
2021/06/16 05:03:03;;;;;;;11.05;6.82;;;538.50;2406.40;;;;;;4879441;29;20044;-70
2021/06/16 05:05:29;;;;;;;8.10;5.80;;;563.20;2432.00;;;;;;4891194;29;20124;-70
2021/06/16 05:07:55;;;;;;;7.93;5.10;;;563.20;2432.00;;;;;;4888535;29;20379;-70
2021/06/16 05:10:21;;;;;;;7.35;5.28;;;563.60;2380.80;;;;;;4878615;29;20029;-70
2021/06/16 05:12:47;;;;;;;8.48;5.63;;;564.00;2355.20;;;;;;4894856;29;20024;-70
2021/06/16 05:15:13;;;;;;;11.20;5.93;;;563.80;2355.20;;;;;;4886136;29;20028;-70
2021/06/16 05:17:40;;;;;;;7.28;5.63;;;564.10;2329.60;;;;;;4893424;29;20017;-70
2021/06/16 05:20:08;;;;;;;11.02;5.32;;;588.90;2304.00;;;;;;4891249;29;20037;-70
2021/06/16 05:22:34;;;;;;;9.43;5.55;;;589.10;2278.40;;;;;;4892862;29;20028;-70
2021/06/16 05:25:01;;;;;;;9.43;5.47;;;589.20;2278.40;;;;;;4896045;29;20020;-70
2021/06/16 05:27:27;;;;;;;8.20;5.78;;;589.30;2278.40;;;;;;4896014;29;20522;-70
2021/06/16 05:29:59;;;;;;;10.25;6.70;;;589.40;2278.40;;;;;;4894967;29;20048;-70
2021/06/16 05:32:25;;;;;;;10.43;6.75;;;589.40;2278.40;;;;;;4886250;29;20036;-70
2021/06/16 05:34:51;;;;;;;10.05;5.93;;;589.50;2278.40;;;;;;4894940;29;20028;-70
2021/06/16 05:37:17;;;;;;;11.55;5.63;;;589.60;2252.80;;;;;;4895781;29;20060;-70
2021/06/16 05:39:43;;;;;;;7.80;4.88;;;589.70;2252.80;;;;;;4896051;29;20032;-70
2021/06/16 05:42:09;;;;;;;6.65;4.68;;;614.70;2227.20;;;;;;4895332;29;20375;-70
2021/06/16 05:44:35;;;;;;;10.23;5.28;;;614.90;2201.60;;;;;;4887954;29;20029;-70
2021/06/16 05:47:02;;;;;;;5.13;4.13;;;615.00;2176.00;;;;;;4893359;29;20541;-70
2021/06/16 05:49:27;;;;;;;9.10;5.68;;;615.20;2150.40;;;;;;4891908;29;20111;-70
2021/06/16 05:51:53;;;;;;;6.45;4.90;;;640.00;2150.40;;;;;;4895790;29;20550;-71
2021/06/16 05:54:20;;;;;;;6.80;4.95;;;615.30;2150.40;;;;;;4895142;29;20051;-70
2021/06/16 05:56:46;;;;;;;6.18;4.50;;;640.00;2150.40;;;;;;4895841;29;20026;-70
2021/06/16 05:59:11;;;;;;;7.07;4.25;;;640.10;2150.40;;;;;;4894982;29;20052;-70
2021/06/16 06:01:37;;;;;;;6.95;4.68;;;640.30;2124.80;;;;;;4895557;29;20035;-70
2021/06/16 06:04:06;;;;;;;10.15;4.68;;;640.30;2124.80;;;;;;4891657;29;20382;-70
2021/06/16 06:06:38;;;;;;;7.15;4.60;;;640.50;2124.80;;;;;;4890876;29;20025;-70
2021/06/16 06:09:06;;;;;;;5.45;3.83;;;640.70;2099.20;;;;;;4894048;29;20120;-71
2021/06/16 06:11:34;;;;;;;5.38;4.07;;;640.70;2099.20;;;;;;4894895;29;20020;-70
2021/06/16 06:14:06;;;;;;;9.05;4.40;;;665.60;2099.20;;;;;;4902586;29;20080;-71
2021/06/16 06:16:32;;;;;;;7.05;3.78;;;665.70;2099.20;;;;;;4885304;29;20032;-70
2021/06/16 06:18:58;;;;;;;10.02;4.30;;;665.90;2099.20;;;;;;4895150;29;20033;-70
2021/06/16 06:21:29;;;;;;;8.52;4.30;;;666.10;2073.60;;;;;;4890218;29;20359;-71
2021/06/16 06:23:55;;;;;;;7.32;4.00;;;666.20;2073.60;;;;;;4893726;29;20140;-71
2021/06/16 06:26:21;;;;;;;7.65;3.47;;;666.20;2022.40;;;;;;4894856;29;20119;-71
2021/06/16 06:28:48;;;;;;;5.70;3.97;;;666.30;2048.00;;;;;;4894981;29;20028;-71
2021/06/16 06:31:13;;;;;;;8.73;4.00;;;691.20;2022.40;;;;;;4894954;29;20028;-71
2021/06/16 06:33:39;;;;;;;7.35;4.32;;;691.20;2022.40;;;;;;4894800;29;20092;-71
2021/06/16 06:36:05;;;;;;;6.38;3.92;;;666.20;2073.60;;;;;;4894854;29;20033;-71
2021/06/16 06:38:31;;;;;;;6.75;4.35;;;691.20;1996.80;;;;;;4895058;29;20020;-71
2021/06/16 06:40:59;;;;;;;6.22;3.75;;;691.30;1996.80;;;;;;4895261;29;20096;-71
2021/06/16 06:43:26;;;;;;;7.90;5.32;;;691.40;1996.80;;;;;;4883963;29;20037;-72
2021/06/16 06:45:51;;;;;;;7.45;4.85;;;691.70;1996.80;;;;;;4895279;29;20040;-71
2021/06/16 06:48:17;;;;;;;7.95;4.30;;;692.00;1945.60;;;;;;4898035;29;20017;-71
2021/06/16 06:50:43;;;;;;;5.75;4.43;;;716.90;1945.60;;;;;;4890471;29;20901;-71
2021/06/16 06:53:09;;;;;;;7.07;3.60;;;717.10;1920.00;;;;;;4892790;29;20056;-72
2021/06/16 06:55:35;;;;;;;7.03;4.13;;;717.30;1920.00;;;;;;4892746;29;20060;-71
2021/06/16 06:58:02;;;;;;;8.35;4.18;;;717.50;1868.80;;;;;;4887569;29;20091;-71
2021/06/16 07:00:28;;;;;;;9.75;3.40;;;717.70;1868.80;;;;;;4895444;29;20052;-72
2021/06/16 07:02:56;;;;;;;7.40;3.75;;;742.60;1868.80;;;;;;4897960;29;20695;-72
2021/06/16 07:05:21;;;;;;;5.47;3.47;;;742.90;1817.60;;;;;;4895250;29;20119;-72
2021/06/16 07:07:47;;;;;;;4.50;3.40;;;742.90;1792.00;;;;;;4892226;29;20104;-72
2021/06/16 07:10:13;;;;;;;11.55;4.20;;;742.70;1817.60;;;;;;4895816;29;20048;-72
2021/06/16 07:12:40;;;;;;;8.25;3.88;;;743.00;1817.60;;;;;;4897420;29;20032;-70
2021/06/16 07:15:06;;;;;;;6.10;4.45;;;743.20;1792.00;;;;;;4902202;29;20031;-70
2021/06/16 07:17:33;;;;;;;7.30;3.53;;;742.90;1817.60;;;;;;4897465;29;20071;-71
2021/06/16 07:19:59;;;;;;;5.80;4.25;;;743.00;1792.00;;;;;;4879712;29;20415;-70
2021/06/16 07:22:25;;;;;;;6.40;3.53;;;768.00;1766.40;;;;;;4897280;29;20156;-70
2021/06/16 07:24:51;;;;;;;6.97;4.22;;;743.00;1766.40;;;;;;4892245;29;20021;-70
2021/06/16 07:27:17;;;;;;;6.40;4.35;;;743.10;1792.00;;;;;;4892214;29;20056;-70
2021/06/16 07:29:42;;;;;;;6.80;4.18;;;768.00;1766.40;;;;;;4892452;29;20721;-70
2021/06/16 07:32:08;;;;;;;13.27;4.30;;;743.20;1766.40;;;;;;4889742;29;20139;-70
2021/06/16 07:34:34;;;;;;;6.88;4.28;;;743.30;1766.40;;;;;;4894340;29;20447;-71
2021/06/16 07:37:00;;;;;;;4.93;3.42;;;743.20;1766.40;;;;;;4887052;29;20087;-70
2021/06/16 07:39:26;;;;;;;5.45;4.18;;;768.40;1715.20;;;;;;4894637;29;20485;-71
2021/06/16 07:41:52;;;;;;;6.88;4.00;;;768.40;1715.20;;;;;;4882392;29;20040;-71
2021/06/16 07:44:19;;;;;;;6.53;3.55;;;768.30;1715.20;;;;;;4880982;29;20032;-71
2021/06/16 07:46:45;;;;;;;9.38;3.72;;;768.50;1689.60;;;;;;4887099;29;20024;-71
2021/06/16 07:49:10;;;;;;;5.18;3.38;;;768.50;1664.00;;;;;;4892305;29;20025;-71
2021/06/16 07:51:36;;;;;;;4.07;2.90;;;768.40;1638.40;;;;;;4882554;29;20081;-71
2021/06/16 07:54:02;;;;;;;5.43;3.63;;;768.50;1638.40;;;;;;4882295;29;20161;-70
2021/06/16 07:56:28;;;;;;;6.53;3.72;;;768.80;1638.40;;;;;;4885054;29;20127;-71
2021/06/16 07:58:54;;;;;;;9.60;3.35;;;793.90;1638.40;;;;;;4890061;29;20092;-70
2021/06/16 08:01:20;;;;;;;4.75;3.47;;;793.60;1638.40;;;;;;4890085;29;20172;-71
2021/06/16 08:03:46;;;;;;;6.95;3.20;;;794.10;1587.20;;;;;;4889134;29;20107;-71
2021/06/16 08:06:12;;;;;;;4.20;3.20;;;793.80;1587.20;;;;;;4890887;29;20029;-71
2021/06/16 08:08:38;;;;;;;5.65;3.47;;;794.00;1561.60;;;;;;4878106;29;20025;-71
2021/06/16 08:11:03;;;;;;;6.18;3.47;;;794.20;1561.60;;;;;;4889664;29;20039;-71
2021/06/16 08:13:32;;;;;;;6.95;3.25;;;794.20;1561.60;;;;;;4893340;29;20016;-71
2021/06/16 08:15:59;;;;;;;6.45;2.72;;;793.70;1587.20;;;;;;4892699;29;20165;-71
2021/06/16 08:18:25;;;;;;;3.65;2.65;;;793.80;1561.60;;;;;;4893965;29;20025;-72
2021/06/16 08:20:51;;;;;;;7.95;2.85;;;793.90;1536.00;;;;;;4873674;29;20096;-72
2021/06/16 08:23:17;;;;;;;5.18;2.90;;;794.00;1536.00;;;;;;4884284;29;20061;-71
2021/06/16 08:25:43;;;;;;;5.82;3.25;;;794.00;1536.00;;;;;;4890368;29;20144;-72
2021/06/16 08:28:09;;;;;;;6.00;3.30;;;794.10;1536.00;;;;;;4890797;29;20025;-72
2021/06/16 08:30:35;;;;;;;4.07;2.70;;;794.40;1536.00;;;;;;4888078;29;20025;-72
2021/06/16 08:33:01;;;;;;;3.80;2.47;;;794.40;1433.60;;;;;;4893237;29;20044;-72
2021/06/16 08:35:27;;;;;;;5.57;3.03;;;819.40;1459.20;;;;;;4876845;29;20029;-72
2021/06/16 08:37:53;;;;;;;6.15;2.55;;;819.70;1433.60;;;;;;4883674;29;20037;-71
2021/06/16 08:40:18;;;;;;;5.18;3.13;;;819.60;1459.20;;;;;;4884574;29;20112;-71
2021/06/16 08:42:49;;;;;;;4.75;2.75;;;819.80;1433.60;;;;;;4882639;29;20104;-71
2021/06/16 08:45:17;;;;;;;3.97;2.35;;;820.10;1408.00;;;;;;4886719;29;20025;-72
2021/06/16 08:47:46;;;;;;;5.15;2.92;;;819.90;1356.80;;;;;;4882014;29;20024;-72
2021/06/16 08:50:13;;;;;;;6.20;3.00;;;844.90;1382.40;;;;;;4882787;29;20495;-72
2021/06/16 08:52:39;;;;;;;3.53;2.70;;;845.30;1356.80;;;;;;4880026;29;20016;-71
2021/06/16 08:55:09;;;;;;;4.50;2.95;;;845.40;1356.80;;;;;;4890176;29;20033;-72
2021/06/16 08:57:36;;;;;;;4.55;2.70;;;870.40;1331.20;;;;;;4885636;29;20107;-72
2021/06/16 09:00:04;;;;;;;4.28;2.58;;;870.40;1305.60;;;;;;4871542;29;20418;-72
2021/06/16 09:02:30;;;;;;;6.30;2.38;;;870.40;1331.20;;;;;;4888776;29;20048;-72
2021/06/16 09:04:55;;;;;;;3.90;2.50;;;845.50;1356.80;;;;;;4895489;29;20120;-73
2021/06/16 09:07:30;;;;;;;4.30;2.08;;;845.70;1331.20;;;;;;4889806;29;20705;-72
2021/06/16 09:10:11;;;;;;;7.53;2.97;;;870.40;1331.20;;;;;;4888805;29;20184;-73
2021/06/16 09:13:07;;;;;;;3.72;2.60;;;870.60;1305.60;;;;;;4886154;29;20091;-75
2021/06/16 09:15:33;;;;;;;7.68;2.70;;;870.40;1280.00;;;;;;4889866;29;20028;-73
2021/06/16 09:18:04;;;;;;;3.55;2.13;;;845.50;1305.60;;;;;;4893060;29;20024;-73
2021/06/16 09:20:36;;;;;;;5.97;3.50;;;870.40;1280.00;;;;;;4891079;29;20466;-74
2021/06/16 09:23:18;;;;;;;4.68;2.70;;;845.70;1305.60;;;;;;4885875;29;20367;-72
2021/06/16 09:26:03;;;;;;;3.85;2.58;;;870.70;1280.00;;;;;;4891097;29;20033;-72
2021/06/16 09:28:46;;;;;;;5.45;2.75;;;871.10;1254.40;;;;;;4890715;29;20028;-72
2021/06/16 09:31:14;;;;;;;3.75;2.97;;;871.10;1254.40;;;;;;4894683;29;20033;-72
2021/06/16 09:33:42;;;;;;;4.35;2.40;;;871.10;1203.20;;;;;;4892920;29;20025;-72
2021/06/16 09:36:18;;;;;;;7.47;2.95;;;870.70;1228.80;;;;;;4895666;29;20035;-72
2021/06/16 09:38:46;;;;;;;6.43;3.42;;;870.90;1254.40;;;;;;4891816;29;20063;-73
2021/06/16 09:41:14;;;;;;;5.50;2.92;;;870.80;1228.80;;;;;;4890940;29;20021;-72
2021/06/16 09:43:41;;;;;;;3.33;2.47;;;870.60;1228.80;;;;;;4895255;29;20176;-72
2021/06/16 09:46:09;;;;;;;10.05;4.22;;;870.40;1228.80;;;;;;4894926;29;20040;-72
2021/06/16 09:48:40;;;;;;;3.83;2.80;;;870.40;1228.80;;;;;;4892809;29;20032;-72
2021/06/16 09:51:26;;;;;;;6.65;2.70;;;871.20;1203.20;;;;;;4894253;29;20056;-72
2021/06/16 09:53:55;;;;;;;5.28;3.20;;;871.30;1203.20;;;;;;4893983;29;20032;-72
2021/06/16 09:56:20;;;;;;;3.97;2.53;;;896.10;1177.60;;;;;;4895182;29;20051;-72
2021/06/16 09:58:46;;;;;;;5.57;2.55;;;896.40;1177.60;;;;;;4892556;29;20052;-72
2021/06/16 10:01:12;;;;;;;3.55;2.50;;;896.70;1126.40;;;;;;4889250;29;20040;-72
2021/06/16 10:03:38;;;;;;;4.20;2.25;;;896.70;1126.40;;;;;;4885063;29;20041;-72
2021/06/16 10:06:09;;;;;;;3.35;2.15;;;921.70;1126.40;;;;;;4876393;29;20486;-72
2021/06/16 10:08:47;;;;;;;3.40;2.78;;;922.30;1100.80;;;;;;4882965;29;20051;-72
2021/06/16 10:11:15;;;;;;;3.35;2.28;;;921.80;1075.20;;;;;;4893946;29;20033;-72
2021/06/16 10:13:42;;;;;;;4.60;2.80;;;921.70;1075.20;;;;;;4879134;29;20028;-72
2021/06/16 10:16:09;;;;;;;4.50;2.30;;;896.80;1075.20;;;;;;4888049;29;20112;-72
2021/06/16 10:18:40;;;;;;;5.40;2.35;;;896.50;1075.20;;;;;;4895024;29;20029;-72
2021/06/16 10:21:07;;;;;;;5.50;2.80;;;871.20;1126.40;;;;;;4893618;29;20494;-72
2021/06/16 10:23:34;;;;;;;5.88;2.60;;;870.60;1152.00;;;;;;4890919;29;20063;-72
2021/06/16 10:26:09;;;;;;;3.40;2.22;;;870.50;1152.00;;;;;;4879240;29;20040;-73
2021/06/16 10:28:43;;;;;;;2.95;2.63;;;871.20;1100.80;;;;;;4882719;29;20029;-72
2021/06/16 10:31:10;;;;;;;4.80;2.50;;;896.50;1049.60;;;;;;4886268;29;20064;-71
2021/06/16 10:33:41;;;;;;;4.47;2.65;;;896.10;1075.20;;;;;;4883662;29;20025;-72
2021/06/16 10:36:07;;;;;;;4.47;2.40;;;870.60;1100.80;;;;;;4878907;29;20029;-72
2021/06/16 10:38:33;;;;;;;5.60;2.47;;;871.00;1100.80;;;;;;4892854;29;20025;-73
2021/06/16 10:40:59;;;;;;;3.55;2.45;;;871.00;1100.80;;;;;;4893839;29;20029;-73
2021/06/16 10:43:29;;;;;;;5.95;2.63;;;871.30;1075.20;;;;;;4869129;29;20080;-72
2021/06/16 10:46:06;;;;;;;7.60;2.35;;;896.20;1049.60;;;;;;4888361;29;20052;-73
2021/06/16 10:48:46;;;;;;;4.85;2.70;;;896.30;1049.60;;;;;;4885895;29;20021;-73
2021/06/16 10:51:42;;;;;;;3.72;2.17;;;896.80;1024.00;;;;;;4888075;29;20443;-73
2021/06/16 10:54:13;;;;;;;15.07;3.60;;;896.50;1024.00;;;;;;4828265;29;20073;-72
2021/06/16 10:56:45;;;;;;;4.32;2.30;;;896.50;1049.60;;;;;;4830152;29;20023;-73
2021/06/16 10:59:12;;;;;;;3.13;2.47;;;896.70;1024.00;;;;;;4830919;29;20038;-72
2021/06/16 11:01:49;;;;;;;6.00;2.42;;;922.00;1024.00;;;;;;4831543;29;20380;-73
2021/06/16 11:04:29;;;;;;;3.15;2.38;;;922.40;972.80;;;;;;4832899;29;20054;-72
2021/06/16 11:06:55;;;;;;;5.35;2.97;;;947.30;972.80;;;;;;4832326;29;20543;-72
2021/06/16 11:09:51;;;;;;;6.78;2.60;;;947.60;998.40;;;;;;4826495;29;20181;-73
2021/06/16 11:12:30;;;;;;;5.18;2.72;;;972.80;972.80;;;;;;4813953;29;20133;-73
2021/06/16 11:14:57;;;;;;;2.70;2.10;;;972.80;972.80;;;;;;4825472;29;20038;-73
2021/06/16 11:17:35;;;;;;;5.82;2.60;;;947.60;972.80;;;;;;4826426;29;20050;-73
2021/06/16 11:20:02;;;;;;;2.92;1.90;;;922.40;947.20;;;;;;4829468;29;20075;-73
2021/06/16 11:22:29;;;;;;;4.63;2.75;;;947.30;947.20;;;;;;4828608;29;20042;-75
2021/06/16 11:25:21;;;;;;;2.85;2.10;;;947.80;947.20;;;;;;4827942;29;20130;-73
2021/06/16 11:28:08;;;;;;;4.22;2.70;;;948.00;947.20;;;;;;4827069;29;20091;-73
2021/06/16 11:30:53;;;;;;;7.05;2.55;;;947.60;972.80;;;;;;4865979;29;20107;-72
2021/06/16 11:33:19;;;;;;;13.88;3.67;;;871.30;1049.60;;;;;;4879535;29;20032;-73
2021/06/16 11:35:48;;;;;;;4.97;2.75;;;870.40;1100.80;;;;;;4879727;29;20033;-73
2021/06/16 11:38:24;;;;;;;7.82;3.88;;;870.40;1100.80;;;;;;4890945;29;20493;-73
2021/06/16 11:41:16;;;;;;;7.10;2.63;;;870.60;1100.80;;;;;;4887578;29;20047;-72
2021/06/16 11:43:46;;;;;;;5.35;2.58;;;896.00;1024.00;;;;;;4892254;29;20035;-74
2021/06/16 11:46:19;;;;;;;5.03;2.45;;;921.60;1024.00;;;;;;4892921;29;20024;-72
2021/06/16 11:48:48;;;;;;;4.25;2.78;;;922.30;972.80;;;;;;4892743;29;20027;-72
2021/06/16 11:51:42;;;;;;;6.78;2.25;;;922.10;947.20;;;;;;4865999;29;20029;-72
2021/06/16 11:54:23;;;;;;;7.15;2.20;;;922.00;972.80;;;;;;4892942;29;20024;-72
2021/06/16 11:57:01;;;;;;;4.45;2.58;;;871.20;1024.00;;;;;;4877377;29;20032;-71
2021/06/16 11:59:30;;;;;;;4.28;2.65;;;845.50;1049.60;;;;;;4894639;29;20112;-71
2021/06/16 12:02:20;;;;;;;4.68;2.45;;;870.60;1024.00;;;;;;4888476;29;20458;-70
2021/06/16 12:05:07;;;;;;;4.03;3.00;;;871.30;998.40;;;;;;4889605;29;20020;-70
2021/06/16 12:07:47;;;;;;;4.15;2.35;;;896.70;972.80;;;;;;4890278;29;20056;-70
2021/06/16 12:10:19;;;;;;;3.40;2.08;;;871.20;998.40;;;;;;4893180;29;20117;-70
2021/06/16 12:12:48;;;;;;;4.22;2.65;;;870.90;1049.60;;;;;;4878435;29;20111;-70
2021/06/16 12:15:38;;;;;;;3.78;2.35;;;896.10;998.40;;;;;;4893113;29;20044;-71
2021/06/16 12:18:04;;;;;;;4.18;2.60;;;922.00;947.20;;;;;;4894907;29;20494;-70
2021/06/16 12:20:35;;;;;;;6.00;2.83;;;921.80;972.80;;;;;;4876889;29;20039;-71
2021/06/16 12:23:17;;;;;;;5.00;2.85;;;921.70;972.80;;;;;;4889266;29;20031;-71
2021/06/16 12:25:42;;;;;;;3.50;2.10;;;896.80;947.20;;;;;;4892377;29;20024;-71